Time;durP1;ratioP1;P1;durP2;ratioP2;P2;SDS_P1;SDS_P2;PMS_P1;PMS_P2;Temp;Humidity;BMP_temperature;BMP_pressure;BME280_temperature;BME280_humidity;BME280_pressure;Samples;Min_cycle;Max_cycle;Signal;HPM_P1;HPM_P2
2023/09/10 00:00:13;;;;;;;19.60;18.00;;;17.80;99.90;;;;;;7364971;19;20014;-62
2023/09/10 00:02:39;;;;;;;20.67;18.88;;;17.80;99.90;;;;;;7365395;19;20498;-62
2023/09/10 00:05:07;;;;;;;20.85;19.05;;;17.70;99.90;;;;;;7364693;19;20018;-62
2023/09/10 00:07:34;;;;;;;21.45;19.75;;;17.70;99.90;;;;;;7356582;19;20030;-62
2023/09/10 00:10:20;;;;;;;20.05;18.17;;;17.70;99.90;;;;;;7367391;19;20027;-61
2023/09/10 00:12:46;;;;;;;19.23;17.63;;;17.70;99.90;;;;;;7370681;19;20022;-62
2023/09/10 00:15:32;;;;;;;20.33;18.58;;;17.80;99.90;;;;;;7364786;19;20415;-62
2023/09/10 00:17:59;;;;;;;19.88;18.10;;;17.70;99.90;;;;;;7364448;19;20540;-62
2023/09/10 00:20:27;;;;;;;19.70;18.10;;;17.70;99.90;;;;;;7364313;19;20018;-62
2023/09/10 00:23:14;;;;;;;21.15;19.20;;;17.70;99.90;;;;;;7365453;19;20014;-61
2023/09/10 00:25:40;;;;;;;20.30;18.65;;;17.60;99.90;;;;;;7372464;19;20022;-61
2023/09/10 00:28:07;;;;;;;20.25;18.55;;;17.60;99.90;;;;;;7376652;19;20014;-61
2023/09/10 00:30:33;;;;;;;21.33;19.52;;;17.60;99.90;;;;;;7373181;19;20014;-63
2023/09/10 00:33:00;;;;;;;20.30;18.50;;;17.60;99.90;;;;;;7375463;19;20489;-61
2023/09/10 00:35:28;;;;;;;19.60;17.90;;;17.60;99.90;;;;;;7368950;19;20033;-62
2023/09/10 00:37:54;;;;;;;18.33;16.70;;;17.60;99.90;;;;;;7369624;19;20015;-62
2023/09/10 00:40:20;;;;;;;17.55;16.15;;;17.50;99.90;;;;;;7375261;19;20017;-62
2023/09/10 00:42:47;;;;;;;18.88;17.38;;;17.40;99.90;;;;;;7373450;19;20014;-62
2023/09/10 00:45:13;;;;;;;19.20;17.38;;;17.40;99.90;;;;;;7373479;19;20482;-62
2023/09/10 00:48:00;;;;;;;17.05;15.63;;;17.30;99.90;;;;;;7370755;19;20376;-62
2023/09/10 00:50:27;;;;;;;17.77;16.27;;;17.20;99.90;;;;;;7375896;19;20034;-62
2023/09/10 00:52:57;;;;;;;20.95;18.95;;;17.10;99.90;;;;;;7373410;19;20019;-63
2023/09/10 00:55:26;;;;;;;19.35;17.65;;;17.10;99.90;;;;;;7370727;19;20022;-62
2023/09/10 00:57:52;;;;;;;17.92;16.35;;;17.00;99.90;;;;;;7370157;19;20601;-61
2023/09/10 01:00:33;;;;;;;19.00;17.52;;;16.90;99.90;;;;;;7373440;19;20022;-62
2023/09/10 01:03:00;;;;;;;20.25;18.63;;;17.00;99.90;;;;;;7375540;19;20019;-62
2023/09/10 01:05:47;;;;;;;19.13;17.63;;;17.00;99.90;;;;;;7373240;19;20022;-62
2023/09/10 01:08:14;;;;;;;20.77;19.08;;;16.90;99.90;;;;;;7373655;19;20497;-63
2023/09/10 01:11:03;;;;;;;22.55;20.58;;;17.00;99.90;;;;;;7371514;19;20026;-61
2023/09/10 01:13:51;;;;;;;22.65;20.83;;;17.10;99.90;;;;;;7371343;19;20640;-63
2023/09/10 01:16:44;;;;;;;24.55;22.55;;;17.10;99.90;;;;;;7364028;19;20106;-66
2023/09/10 01:19:51;;;;;;;25.88;23.67;;;17.10;99.90;;;;;;7367010;19;20019;-62
2023/09/10 01:22:26;;;;;;;27.02;24.90;;;17.10;99.90;;;;;;7372802;19;20107;-62
2023/09/10 01:24:54;;;;;;;22.65;20.85;;;17.10;99.90;;;;;;7369936;19;20018;-62
2023/09/10 01:27:21;;;;;;;20.27;18.60;;;17.00;99.90;;;;;;7370049;19;20030;-62
2023/09/10 01:29:47;;;;;;;23.92;21.92;;;16.90;99.90;;;;;;7370062;19;20030;-62
2023/09/10 01:32:41;;;;;;;20.65;18.85;;;16.90;99.90;;;;;;7370180;19;20026;-62
2023/09/10 01:35:25;;;;;;;24.92;22.83;;;16.80;99.90;;;;;;7368979;19;20070;-62
2023/09/10 01:37:58;;;;;;;25.05;23.00;;;16.80;99.90;;;;;;7368933;19;20032;-62
2023/09/10 01:40:32;;;;;;;24.30;22.30;;;16.80;99.90;;;;;;7371003;19;20486;-61
2023/09/10 01:42:58;;;;;;;22.33;20.42;;;16.80;99.90;;;;;;7367576;19;20154;-62
2023/09/10 01:45:27;;;;;;;23.42;21.30;;;16.70;99.90;;;;;;7368790;19;20029;-62
2023/09/10 01:47:54;;;;;;;26.50;24.30;;;16.70;99.90;;;;;;7369942;19;20509;-61
2023/09/10 01:50:40;;;;;;;25.35;23.05;;;16.80;99.90;;;;;;7371337;19;20030;-61
2023/09/10 01:53:06;;;;;;;24.20;22.10;;;16.80;99.90;;;;;;7369012;19;20021;-62
2023/09/10 01:55:53;;;;;;;23.55;21.55;;;16.80;99.90;;;;;;7367586;19;20034;-62
2023/09/10 01:58:20;;;;;;;25.23;23.10;;;16.80;99.90;;;;;;7365563;19;20022;-61
2023/09/10 02:00:46;;;;;;;23.88;21.73;;;16.70;99.90;;;;;;7367771;19;20026;-62
2023/09/10 02:03:12;;;;;;;23.63;21.70;;;16.70;99.90;;;;;;7370335;19;20077;-60
2023/09/10 02:05:42;;;;;;;23.00;20.90;;;16.70;99.90;;;;;;7371281;19;20482;-62
2023/09/10 02:08:09;;;;;;;26.58;24.23;;;16.60;99.90;;;;;;7368806;19;20058;-62
2023/09/10 02:10:36;;;;;;;27.33;25.08;;;16.70;99.90;;;;;;7372202;19;20452;-61
2023/09/10 02:13:05;;;;;;;27.25;24.77;;;16.70;99.90;;;;;;7368415;19;20019;-62
2023/09/10 02:15:31;;;;;;;27.60;25.38;;;16.70;99.90;;;;;;7371460;19;20058;-62
2023/09/10 02:17:58;;;;;;;26.77;24.67;;;16.60;99.90;;;;;;7366836;19;20442;-62
2023/09/10 02:20:24;;;;;;;27.60;25.10;;;16.60;99.90;;;;;;7374005;19;20041;-63
2023/09/10 02:22:50;;;;;;;26.33;24.02;;;16.60;99.90;;;;;;7367347;19;20026;-62
2023/09/10 02:25:16;;;;;;;21.80;19.63;;;16.60;99.90;;;;;;7370622;19;20018;-62
2023/09/10 02:27:43;;;;;;;19.02;17.42;;;16.50;99.90;;;;;;7363927;19;20018;-62
2023/09/10 02:30:10;;;;;;;18.85;17.35;;;16.50;99.90;;;;;;7369655;19;20021;-62
2023/09/10 02:32:37;;;;;;;22.35;20.35;;;16.40;99.90;;;;;;7367553;19;20502;-63
2023/09/10 02:35:04;;;;;;;22.45;20.55;;;16.40;99.90;;;;;;7371493;19;20485;-62
2023/09/10 02:37:31;;;;;;;21.05;19.25;;;16.40;99.90;;;;;;7364798;19;20813;-62
2023/09/10 02:39:57;;;;;;;21.10;19.25;;;16.40;99.90;;;;;;7367672;19;20026;-61
2023/09/10 02:42:24;;;;;;;23.23;21.13;;;16.30;99.90;;;;;;7365848;19;20488;-62
2023/09/10 02:44:50;;;;;;;24.25;22.15;;;16.30;99.90;;;;;;7367744;19;20014;-62
2023/09/10 02:47:36;;;;;;;25.60;23.40;;;16.30;99.90;;;;;;7363905;19;20651;-62
2023/09/10 02:50:05;;;;;;;26.20;23.75;;;16.30;99.90;;;;;;7367834;19;20093;-61
2023/09/10 02:52:31;;;;;;;28.00;25.50;;;16.30;99.90;;;;;;7365322;19;20026;-63
2023/09/10 02:54:57;;;;;;;24.58;22.38;;;16.20;99.90;;;;;;7370862;19;20592;-62
2023/09/10 02:57:26;;;;;;;24.88;22.70;;;16.20;99.90;;;;;;7365199;19;20017;-62
2023/09/10 02:59:52;;;;;;;27.05;24.45;;;16.10;99.90;;;;;;7366066;19;20023;-61
2023/09/10 03:02:18;;;;;;;27.52;24.92;;;16.10;99.90;;;;;;7366749;19;20022;-62
2023/09/10 03:04:44;;;;;;;27.15;24.65;;;16.00;99.90;;;;;;7368719;19;20015;-63
2023/09/10 03:07:11;;;;;;;25.90;23.60;;;16.00;99.90;;;;;;7369961;19;20015;-65
2023/09/10 03:09:37;;;;;;;28.15;25.60;;;16.00;99.90;;;;;;7368364;19;20052;-62
2023/09/10 03:12:25;;;;;;;26.88;24.48;;;16.00;99.90;;;;;;7367909;19;20025;-61
2023/09/10 03:14:54;;;;;;;31.08;28.17;;;16.10;99.90;;;;;;7368559;19;20043;-63
2023/09/10 03:17:21;;;;;;;31.95;29.15;;;16.10;99.90;;;;;;7366406;19;20011;-61
2023/09/10 03:19:48;;;;;;;34.25;31.17;;;16.10;99.90;;;;;;7361641;19;20018;-63
2023/09/10 03:22:16;;;;;;;35.05;31.85;;;16.10;99.90;;;;;;7368155;19;20475;-62
2023/09/10 03:24:42;;;;;;;36.10;32.63;;;16.10;99.90;;;;;;7365087;19;20620;-61
2023/09/10 03:27:08;;;;;;;36.15;32.85;;;16.10;99.90;;;;;;7369453;19;21279;-64
2023/09/10 03:29:36;;;;;;;38.33;34.83;;;16.10;99.90;;;;;;7367012;19;20029;-64
2023/09/10 03:32:06;;;;;;;33.70;30.50;;;16.10;99.90;;;;;;7366875;19;20025;-64
2023/09/10 03:34:33;;;;;;;29.50;26.98;;;16.10;99.90;;;;;;7366373;19;20374;-64
2023/09/10 03:37:00;;;;;;;28.42;25.92;;;16.00;99.90;;;;;;7366437;19;20608;-65
2023/09/10 03:39:27;;;;;;;28.35;26.02;;;16.00;99.90;;;;;;7362699;19;20051;-64
2023/09/10 03:41:54;;;;;;;28.10;25.60;;;16.00;99.90;;;;;;7365291;19;20018;-63
2023/09/10 03:44:20;;;;;;;28.20;25.52;;;16.00;99.90;;;;;;7366598;19;20014;-63
2023/09/10 03:47:07;;;;;;;28.58;26.08;;;16.00;99.90;;;;;;7366087;19;20042;-63
2023/09/10 03:49:35;;;;;;;26.95;24.55;;;16.00;99.90;;;;;;7361808;19;20412;-64
2023/09/10 03:52:17;;;;;;;27.77;25.27;;;16.00;99.90;;;;;;7368117;19;20029;-63
2023/09/10 03:54:43;;;;;;;30.75;27.90;;;16.00;99.90;;;;;;7368380;19;20513;-63
2023/09/10 03:57:30;;;;;;;27.75;24.90;;;16.00;99.90;;;;;;7363083;19;20033;-64
2023/09/10 03:59:57;;;;;;;26.90;24.40;;;15.90;99.90;;;;;;7365765;19;20020;-63
2023/09/10 04:02:24;;;;;;;22.75;20.65;;;15.90;99.90;;;;;;7365097;19;20015;-64
2023/09/10 04:04:50;;;;;;;26.10;23.52;;;15.80;99.90;;;;;;7366503;19;20207;-64
2023/09/10 04:07:17;;;;;;;22.25;20.30;;;15.70;99.90;;;;;;7370043;19;20022;-64
2023/09/10 04:09:43;;;;;;;23.35;21.27;;;15.70;99.90;;;;;;7364302;19;20455;-64
2023/09/10 04:12:09;;;;;;;21.63;19.73;;;15.60;99.90;;;;;;7365782;19;20844;-64
2023/09/10 04:14:36;;;;;;;22.80;20.70;;;15.60;99.90;;;;;;7366072;19;20026;-64
2023/09/10 04:17:03;;;;;;;26.10;23.73;;;15.60;99.90;;;;;;7364038;19;20026;-64
2023/09/10 04:19:29;;;;;;;26.48;23.98;;;15.60;99.90;;;;;;7361722;19;20019;-63
2023/09/10 04:22:15;;;;;;;27.95;25.48;;;15.70;99.90;;;;;;7365687;19;20130;-63
2023/09/10 04:24:42;;;;;;;24.70;22.48;;;15.60;99.90;;;;;;7362841;19;20026;-64
2023/09/10 04:27:08;;;;;;;24.95;22.75;;;15.70;99.90;;;;;;7365857;19;20394;-63
2023/09/10 04:29:34;;;;;;;25.77;23.38;;;15.70;99.90;;;;;;7364337;19;20093;-64
2023/09/10 04:32:01;;;;;;;26.70;24.35;;;15.70;99.90;;;;;;7362656;19;20018;-63
2023/09/10 04:34:27;;;;;;;29.08;26.42;;;15.70;99.90;;;;;;7368671;19;20018;-64
2023/09/10 04:37:13;;;;;;;30.02;27.10;;;15.80;99.90;;;;;;7364260;19;20027;-63
2023/09/10 04:39:40;;;;;;;30.60;28.00;;;15.80;99.90;;;;;;7364873;19;20018;-64
2023/09/10 04:42:06;;;;;;;30.65;27.85;;;15.80;99.90;;;;;;7364044;19;20086;-64
2023/09/10 04:44:34;;;;;;;30.65;27.77;;;15.80;99.90;;;;;;7363182;19;20484;-64
2023/09/10 04:47:00;;;;;;;32.28;29.38;;;15.90;99.90;;;;;;7359469;19;20691;-64
2023/09/10 04:49:27;;;;;;;32.80;29.70;;;15.80;99.90;;;;;;7364512;19;20018;-64
2023/09/10 04:51:53;;;;;;;33.13;30.05;;;15.90;99.90;;;;;;7364264;19;20022;-63
2023/09/10 04:54:20;;;;;;;35.13;31.90;;;15.90;99.90;;;;;;7363496;19;20022;-63
2023/09/10 04:56:53;;;;;;;34.53;31.52;;;15.90;99.90;;;;;;7364594;19;20014;-63
2023/09/10 04:59:20;;;;;;;34.97;31.67;;;15.90;99.90;;;;;;7363252;19;20313;-64
2023/09/10 05:01:48;;;;;;;35.70;32.42;;;15.90;99.90;;;;;;7357303;19;20521;-63
2023/09/10 05:04:14;;;;;;;35.30;32.22;;;15.90;99.90;;;;;;7363823;19;20014;-65
2023/09/10 05:06:41;;;;;;;35.92;32.75;;;15.90;99.90;;;;;;7362232;19;20018;-64
2023/09/10 05:09:08;;;;;;;31.13;28.13;;;15.90;99.90;;;;;;7364804;19;20018;-63
2023/09/10 05:11:34;;;;;;;34.90;31.80;;;16.00;99.90;;;;;;7365848;19;20446;-63
2023/09/10 05:14:01;;;;;;;34.67;31.48;;;15.90;99.90;;;;;;7373943;19;20034;-64
2023/09/10 05:16:27;;;;;;;33.88;30.88;;;16.00;99.90;;;;;;7368335;19;20034;-64
2023/09/10 05:18:53;;;;;;;35.55;32.33;;;16.00;99.90;;;;;;7367481;19;20437;-64
2023/09/10 05:21:20;;;;;;;35.85;32.72;;;16.00;99.90;;;;;;7369510;19;20782;-64
2023/09/10 05:23:46;;;;;;;36.70;33.30;;;16.00;99.90;;;;;;7371065;19;22263;-64
2023/09/10 05:26:12;;;;;;;36.50;33.17;;;16.00;99.90;;;;;;7372814;19;20445;-65
2023/09/10 05:28:39;;;;;;;37.40;33.83;;;16.10;99.90;;;;;;7370774;19;20020;-64
2023/09/10 05:31:07;;;;;;;39.65;35.65;;;16.20;99.90;;;;;;7372987;19;20026;-64
2023/09/10 05:33:34;;;;;;;38.10;34.58;;;16.20;99.90;;;;;;7366061;19;20485;-64
2023/09/10 05:36:00;;;;;;;35.28;32.25;;;16.20;99.90;;;;;;7373503;19;20457;-67
2023/09/10 05:38:29;;;;;;;35.35;32.10;;;16.30;99.90;;;;;;7365037;19;20048;-67
2023/09/10 05:41:04;;;;;;;34.72;31.27;;;16.40;99.90;;;;;;7368859;19;20022;-67
2023/09/10 05:43:31;;;;;;;33.42;30.42;;;16.50;99.90;;;;;;7368332;19;20034;-67
2023/09/10 05:45:58;;;;;;;35.13;31.95;;;16.50;99.90;;;;;;7371767;19;20030;-67
2023/09/10 05:48:25;;;;;;;34.67;31.67;;;16.60;99.90;;;;;;7372093;19;20022;-69
2023/09/10 05:50:58;;;;;;;33.03;30.08;;;16.70;99.90;;;;;;7369965;19;20041;-68
2023/09/10 05:53:27;;;;;;;34.45;31.33;;;16.70;99.90;;;;;;7372111;19;20948;-68
2023/09/10 05:55:54;;;;;;;32.30;29.40;;;16.80;99.90;;;;;;7371737;19;20075;-68
2023/09/10 05:58:20;;;;;;;32.53;29.60;;;16.90;99.90;;;;;;7368352;19;20584;-67
2023/09/10 06:00:47;;;;;;;33.58;30.52;;;17.00;99.90;;;;;;7369463;19;20014;-68
2023/09/10 06:03:14;;;;;;;40.97;37.20;;;17.10;99.90;;;;;;7371483;19;20070;-67
2023/09/10 06:05:40;;;;;;;37.78;34.42;;;17.20;99.90;;;;;;7371947;19;20365;-67
2023/09/10 06:08:07;;;;;;;36.03;32.90;;;17.30;99.90;;;;;;7371930;19;20014;-67
2023/09/10 06:10:33;;;;;;;34.63;31.52;;;17.40;99.90;;;;;;7371481;19;20022;-67
2023/09/10 06:12:59;;;;;;;35.53;32.22;;;17.60;99.90;;;;;;7369430;19;20014;-68
2023/09/10 06:15:27;;;;;;;38.30;34.75;;;17.70;99.90;;;;;;7367187;19;20018;-67
2023/09/10 06:17:53;;;;;;;35.38;32.17;;;17.80;99.90;;;;;;7369197;19;20460;-66
2023/09/10 06:20:20;;;;;;;59.78;54.33;;;17.90;99.90;;;;;;7369423;19;20014;-68
2023/09/10 06:22:46;;;;;;;35.50;32.35;;;18.00;99.90;;;;;;7367245;19;20014;-66
2023/09/10 06:25:12;;;;;;;29.98;27.27;;;18.20;99.90;;;;;;7366730;19;20109;-66
2023/09/10 06:27:59;;;;;;;37.20;33.83;;;18.30;99.90;;;;;;7372219;19;20042;-67
2023/09/10 06:30:25;;;;;;;29.08;26.67;;;18.40;99.90;;;;;;7366276;19;20018;-68
2023/09/10 06:32:52;;;;;;;29.02;26.40;;;18.60;99.90;;;;;;7366615;19;20023;-67
2023/09/10 06:35:18;;;;;;;30.83;28.17;;;18.70;99.90;;;;;;7366916;19;20081;-61
2023/09/10 06:37:46;;;;;;;32.20;29.38;;;18.90;99.90;;;;;;7367944;19;20018;-63
2023/09/10 06:40:13;;;;;;;33.45;30.58;;;19.10;99.90;;;;;;7365930;19;20026;-69
2023/09/10 06:42:41;;;;;;;35.70;32.50;;;19.40;99.90;;;;;;7367749;19;20102;-67
2023/09/10 06:45:18;;;;;;;34.88;31.88;;;19.60;99.90;;;;;;7366896;19;20038;-61
2023/09/10 06:47:44;;;;;;;37.15;33.80;;;19.80;99.90;;;;;;7368755;19;20478;-62
2023/09/10 06:50:11;;;;;;;44.28;40.22;;;20.00;99.90;;;;;;7366354;19;20037;-61
2023/09/10 06:52:37;;;;;;;37.63;34.38;;;20.30;99.90;;;;;;7368782;19;20018;-61
2023/09/10 06:55:03;;;;;;;69.88;63.40;;;20.60;99.90;;;;;;7369862;19;20022;-62
2023/09/10 06:57:30;;;;;;;44.63;40.58;;;20.70;99.90;;;;;;7362941;19;20025;-62
2023/09/10 06:59:57;;;;;;;52.38;47.70;;;21.00;99.90;;;;;;7369769;19;20017;-65
2023/09/10 07:02:25;;;;;;;40.90;37.42;;;21.30;99.90;;;;;;7367212;19;20041;-65
2023/09/10 07:04:52;;;;;;;39.25;35.67;;;21.40;99.90;;;;;;7367483;19;20014;-63
2023/09/10 07:07:18;;;;;;;39.45;36.03;;;21.50;99.90;;;;;;7370002;19;20078;-62
2023/09/10 07:09:44;;;;;;;39.65;36.25;;;21.90;99.90;;;;;;7373127;19;20097;-62
2023/09/10 07:12:11;;;;;;;37.80;34.60;;;22.00;99.90;;;;;;7368247;19;20557;-62
2023/09/10 07:14:37;;;;;;;37.92;34.60;;;22.30;99.90;;;;;;7370495;19;20022;-62
2023/09/10 07:17:23;;;;;;;36.92;33.60;;;22.60;99.90;;;;;;7367310;19;20035;-63
2023/09/10 07:20:11;;;;;;;37.90;34.40;;;22.70;99.90;;;;;;7367210;19;20026;-63
2023/09/10 07:22:40;;;;;;;37.78;34.33;;;23.00;99.90;;;;;;7368223;19;20029;-63
2023/09/10 07:25:06;;;;;;;34.58;31.48;;;23.30;99.90;;;;;;7365361;19;20112;-61
2023/09/10 07:27:32;;;;;;;35.47;32.38;;;23.50;99.90;;;;;;7369428;19;20014;-63
2023/09/10 07:29:59;;;;;;;35.05;32.05;;;23.80;99.90;;;;;;7369403;19;20014;-62
2023/09/10 07:32:25;;;;;;;33.38;30.45;;;24.10;99.90;;;;;;7369167;19;20010;-62
2023/09/10 07:34:51;;;;;;;31.80;28.90;;;24.30;99.90;;;;;;7365666;19;20489;-62
2023/09/10 07:37:18;;;;;;;33.05;30.20;;;24.50;99.90;;;;;;7367202;19;20019;-62
2023/09/10 07:39:44;;;;;;;34.50;31.48;;;24.80;99.90;;;;;;7365477;19;20018;-62
2023/09/10 07:42:10;;;;;;;32.80;29.77;;;25.00;99.90;;;;;;7367432;19;20011;-62
2023/09/10 07:44:56;;;;;;;34.10;31.27;;;25.30;99.90;;;;;;7366624;19;20375;-62
2023/09/10 07:47:23;;;;;;;32.20;29.33;;;25.30;99.90;;;;;;7370493;19;20031;-67
2023/09/10 07:49:52;;;;;;;31.33;28.27;;;25.50;99.90;;;;;;7370768;19;20043;-67
2023/09/10 07:52:18;;;;;;;31.80;29.02;;;26.00;99.90;;;;;;7374412;19;20015;-68
2023/09/10 07:54:45;;;;;;;31.25;28.63;;;26.20;99.90;;;;;;7368806;19;20022;-68
2023/09/10 07:57:11;;;;;;;30.60;28.05;;;26.50;99.90;;;;;;7373093;19;20466;-68
2023/09/10 07:59:37;;;;;;;28.77;26.45;;;26.60;99.90;;;;;;7362202;19;20943;-68
2023/09/10 08:02:26;;;;;;;28.10;25.70;;;26.70;99.90;;;;;;7369397;19;20015;-68
2023/09/10 08:04:53;;;;;;;28.75;26.38;;;27.00;99.90;;;;;;7368280;19;20430;-67
2023/09/10 08:07:20;;;;;;;26.92;24.60;;;27.20;99.90;;;;;;7369876;19;20460;-68
2023/09/10 08:09:46;;;;;;;25.73;23.65;;;27.60;99.90;;;;;;7366599;19;20010;-68
2023/09/10 08:12:32;;;;;;;25.83;23.73;;;27.70;99.90;;;;;;7371334;19;20022;-68
2023/09/10 08:14:58;;;;;;;25.80;23.67;;;28.20;99.90;;;;;;7369387;19;20019;-68
2023/09/10 08:17:25;;;;;;;25.70;23.23;;;28.30;99.90;;;;;;7370145;19;20033;-68
2023/09/10 08:19:51;;;;;;;23.42;21.23;;;28.40;99.90;;;;;;7368705;19;20118;-67
2023/09/10 08:22:18;;;;;;;23.90;21.67;;;28.50;99.90;;;;;;7369454;19;20513;-69
2023/09/10 08:24:46;;;;;;;23.10;21.20;;;28.70;99.90;;;;;;7369399;19;20014;-68
2023/09/10 08:27:12;;;;;;;22.70;20.70;;;29.00;99.90;;;;;;7369109;19;20026;-69
2023/09/10 08:29:39;;;;;;;23.38;21.48;;;28.80;99.90;;;;;;7369462;19;20018;-67
2023/09/10 08:32:05;;;;;;;22.38;20.42;;;29.20;99.90;;;;;;7366871;19;20019;-68
2023/09/10 08:34:31;;;;;;;23.45;21.60;;;29.50;99.90;;;;;;7365357;19;20019;-68
2023/09/10 08:36:58;;;;;;;21.13;19.33;;;29.50;99.90;;;;;;7367979;19;20841;-67
2023/09/10 08:39:24;;;;;;;22.58;20.58;;;29.60;99.90;;;;;;7369512;19;20023;-68
2023/09/10 08:42:32;;;;;;;20.85;19.02;;;29.60;99.90;;;;;;7365194;19;20030;-71
2023/09/10 08:45:06;;;;;;;21.95;20.17;;;29.80;99.90;;;;;;7357699;19;20018;-70
2023/09/10 08:47:41;;;;;;;20.50;18.77;;;30.30;99.30;;;;;;7367187;19;20478;-62
2023/09/10 08:50:10;;;;;;;24.55;22.30;;;30.60;99.20;;;;;;7376279;19;20038;-63
2023/09/10 08:52:42;;;;;;;36.35;33.17;;;30.80;98.50;;;;;;7370269;19;20472;-67
2023/09/10 08:55:08;;;;;;;21.30;19.40;;;30.70;97.00;;;;;;7373258;19;20041;-68
2023/09/10 08:57:40;;;;;;;22.55;20.75;;;30.50;96.60;;;;;;7366113;19;20331;-67
2023/09/10 09:00:12;;;;;;;21.55;19.50;;;30.90;96.50;;;;;;7371777;19;20415;-70
2023/09/10 09:02:44;;;;;;;27.50;25.20;;;31.20;96.40;;;;;;7371994;19;20014;-64
2023/09/10 09:05:12;;;;;;;27.63;25.05;;;31.20;95.00;;;;;;7372770;19;20014;-70
2023/09/10 09:08:08;;;;;;;20.70;18.65;;;31.50;94.30;;;;;;7372697;19;20090;-72
2023/09/10 09:10:34;;;;;;;27.75;25.20;;;31.40;93.90;;;;;;7365937;19;20481;-72
2023/09/10 09:13:08;;;;;;;20.60;18.65;;;31.90;94.80;;;;;;7372738;19;20015;-72
2023/09/10 09:15:36;;;;;;;19.35;17.75;;;32.30;92.60;;;;;;7371676;19;20031;-72
2023/09/10 09:18:03;;;;;;;23.13;21.23;;;32.40;92.40;;;;;;7370264;19;20082;-71
2023/09/10 09:20:31;;;;;;;19.95;18.15;;;32.80;91.50;;;;;;7368053;19;20018;-72
2023/09/10 09:23:08;;;;;;;18.52;16.85;;;33.10;90.00;;;;;;7369592;19;20046;-73
2023/09/10 09:25:38;;;;;;;21.30;19.33;;;32.90;89.80;;;;;;7373056;19;20022;-71
2023/09/10 09:28:05;;;;;;;30.60;27.65;;;33.20;85.40;;;;;;7373618;19;20509;-70
2023/09/10 09:30:52;;;;;;;24.77;22.42;;;33.10;85.90;;;;;;7372352;19;20445;-70
2023/09/10 09:33:18;;;;;;;25.25;22.92;;;33.30;84.60;;;;;;7370172;19;20022;-73
2023/09/10 09:35:46;;;;;;;27.23;24.75;;;33.50;82.20;;;;;;7375149;19;20362;-72
2023/09/10 09:38:16;;;;;;;18.15;16.55;;;33.60;80.80;;;;;;7374302;19;20022;-73
2023/09/10 09:40:45;;;;;;;20.27;18.13;;;33.80;79.20;;;;;;7367221;19;20018;-73
2023/09/10 09:43:11;;;;;;;20.70;18.70;;;33.50;78.00;;;;;;7374845;19;20574;-73
2023/09/10 09:45:39;;;;;;;17.67;16.02;;;33.70;77.70;;;;;;7369698;19;20018;-74
2023/09/10 09:48:06;;;;;;;16.83;15.15;;;33.60;76.60;;;;;;7372620;19;20018;-72
2023/09/10 09:50:32;;;;;;;21.52;19.30;;;33.60;77.30;;;;;;7372827;19;20371;-72
2023/09/10 09:53:22;;;;;;;23.23;20.98;;;33.60;76.70;;;;;;7369305;19;20018;-71
2023/09/10 09:55:48;;;;;;;29.88;27.10;;;34.00;74.60;;;;;;7371367;19;20010;-73
2023/09/10 09:58:18;;;;;;;25.73;23.45;;;34.30;73.70;;;;;;7363059;19;20963;-74
2023/09/10 10:00:48;;;;;;;20.55;18.63;;;34.30;73.40;;;;;;7375481;19;20029;-72
2023/09/10 10:03:18;;;;;;;26.23;23.77;;;34.50;73.10;;;;;;7364975;19;21008;-73
2023/09/10 10:05:53;;;;;;;14.63;13.00;;;34.60;71.80;;;;;;7368048;19;20185;-74
2023/09/10 10:08:25;;;;;;;17.58;14.68;;;34.40;73.10;;;;;;7370554;19;20048;-72
2023/09/10 10:10:52;;;;;;;15.20;13.73;;;34.80;71.00;;;;;;7370919;19;20891;-72
2023/09/10 10:13:22;;;;;;;14.07;12.73;;;34.60;71.80;;;;;;7365319;19;20082;-65
2023/09/10 10:15:50;;;;;;;26.88;24.33;;;34.90;69.20;;;;;;7368255;19;20814;-65
2023/09/10 10:18:37;;;;;;;14.48;13.18;;;35.30;69.00;;;;;;7365965;19;20046;-64
2023/09/10 10:21:03;;;;;;;14.07;12.68;;;35.30;68.10;;;;;;7366500;19;20459;-69
2023/09/10 10:23:31;;;;;;;14.25;12.85;;;35.20;67.90;;;;;;7373964;19;20055;-73
2023/09/10 10:26:01;;;;;;;12.93;11.55;;;34.80;67.40;;;;;;7370092;19;20860;-72
2023/09/10 10:28:32;;;;;;;18.25;15.45;;;35.00;68.30;;;;;;7368692;19;20375;-72
2023/09/10 10:31:14;;;;;;;18.48;16.58;;;34.80;66.40;;;;;;7371807;19;20019;-74
2023/09/10 10:34:16;;;;;;;13.45;12.07;;;35.30;65.40;;;;;;7366795;19;20074;-74
2023/09/10 10:36:49;;;;;;;28.45;25.77;;;35.20;63.90;;;;;;7366684;19;20018;-72
2023/09/10 10:39:17;;;;;;;15.48;13.98;;;34.90;65.20;;;;;;7372450;19;20022;-72
2023/09/10 10:41:48;;;;;;;20.70;17.95;;;35.50;64.60;;;;;;7368871;19;20026;-73
2023/09/10 10:44:21;;;;;;;13.00;11.80;;;35.50;63.60;;;;;;7371517;19;20419;-72
2023/09/10 10:47:13;;;;;;;17.83;14.15;;;35.50;63.60;;;;;;7371419;19;20018;-72
2023/09/10 10:49:53;;;;;;;14.05;10.60;;;35.60;63.40;;;;;;7376608;19;20022;-73
2023/09/10 10:52:30;;;;;;;11.60;10.43;;;35.60;62.30;;;;;;7380393;19;20078;-71
2023/09/10 10:54:57;;;;;;;15.20;9.25;;;35.70;62.70;;;;;;7374625;19;20045;-71
2023/09/10 10:57:25;;;;;;;12.45;11.13;;;36.10;62.20;;;;;;7379223;19;20011;-71
2023/09/10 10:59:52;;;;;;;10.30;9.23;;;36.00;62.50;;;;;;7380853;19;20565;-70
2023/09/10 11:02:23;;;;;;;14.93;10.60;;;35.90;62.50;;;;;;7384725;19;20372;-71
2023/09/10 11:05:01;;;;;;;14.02;10.60;;;35.70;62.60;;;;;;7384494;19;20022;-70
2023/09/10 11:07:31;;;;;;;15.40;10.00;;;35.90;61.90;;;;;;7385491;19;20039;-71
2023/09/10 11:10:37;;;;;;;10.40;9.18;;;35.90;62.00;;;;;;7381275;19;20042;-70
2023/09/10 11:13:07;;;;;;;16.15;9.50;;;35.70;62.70;;;;;;7381821;19;20529;-71
2023/09/10 11:15:34;;;;;;;15.25;8.45;;;35.40;61.20;;;;;;7384684;19;20354;-70
2023/09/10 11:18:34;;;;;;;11.13;10.00;;;36.10;60.40;;;;;;7384599;19;20019;-71
2023/09/10 11:21:02;;;;;;;14.80;9.45;;;36.20;60.00;;;;;;7384770;19;20023;-71
2023/09/10 11:23:29;;;;;;;13.90;9.63;;;36.20;60.50;;;;;;7367620;19;20504;-68
2023/09/10 11:26:16;;;;;;;12.82;9.13;;;36.50;59.70;;;;;;7383161;19;20082;-72
2023/09/10 11:28:49;;;;;;;16.02;9.25;;;36.30;58.10;;;;;;7384416;19;20110;-71
2023/09/10 11:34:18;;;;;;;17.73;13.13;;;35.60;59.70;;;;;;7384359;19;20456;-70
2023/09/10 11:36:54;;;;;;;13.82;9.25;;;36.20;59.80;;;;;;7370477;19;20572;-64
2023/09/10 11:39:20;;;;;;;14.60;10.82;;;36.10;59.80;;;;;;7366938;19;20085;-65
2023/09/10 11:41:52;;;;;;;13.05;11.43;;;36.30;59.00;;;;;;7368603;19;20621;-63
2023/09/10 11:44:19;;;;;;;12.65;10.40;;;35.70;60.00;;;;;;7372696;19;20428;-64
2023/09/10 11:46:46;;;;;;;9.85;8.93;;;35.70;60.20;;;;;;7369896;19;20018;-63
2023/09/10 11:49:14;;;;;;;19.05;13.35;;;35.90;60.30;;;;;;7371100;19;20025;-65
2023/09/10 11:51:51;;;;;;;13.93;9.20;;;35.90;60.00;;;;;;7362402;19;20096;-64
2023/09/10 11:54:38;;;;;;;13.25;10.18;;;35.90;59.70;;;;;;7366675;19;20434;-65
2023/09/10 11:57:04;;;;;;;14.20;9.23;;;36.50;59.70;;;;;;7368466;19;20025;-65
2023/09/10 11:59:31;;;;;;;12.80;8.85;;;36.60;59.30;;;;;;7365538;19;20370;-65
2023/09/10 12:01:58;;;;;;;13.38;8.23;;;36.70;59.60;;;;;;7371427;19;20014;-63
2023/09/10 12:04:30;;;;;;;16.40;9.82;;;36.80;59.30;;;;;;7364987;19;20022;-65
2023/09/10 12:07:16;;;;;;;14.38;8.57;;;37.30;59.50;;;;;;7364847;19;20762;-65
2023/09/10 12:09:43;;;;;;;13.75;8.30;;;37.50;58.90;;;;;;7367500;19;20647;-66
2023/09/10 12:12:21;;;;;;;12.93;8.35;;;37.20;57.60;;;;;;7368526;19;20184;-65
2023/09/10 12:15:08;;;;;;;13.80;7.18;;;37.10;56.60;;;;;;7365760;19;20037;-65
2023/09/10 12:17:35;;;;;;;10.43;7.28;;;36.90;57.40;;;;;;7366397;19;20088;-64
2023/09/10 12:20:01;;;;;;;12.15;9.25;;;37.20;58.00;;;;;;7363282;19;20019;-68
2023/09/10 12:22:28;;;;;;;19.80;17.73;;;37.20;57.40;;;;;;7366676;19;20113;-74
2023/09/10 12:24:56;;;;;;;16.85;13.82;;;37.10;57.90;;;;;;7370348;19;20018;-72
2023/09/10 12:27:23;;;;;;;15.05;8.88;;;37.20;58.00;;;;;;7369965;19;20018;-72
2023/09/10 12:29:49;;;;;;;17.77;8.30;;;37.20;57.10;;;;;;7370095;19;20029;-72
2023/09/10 12:32:18;;;;;;;16.60;11.05;;;37.50;57.60;;;;;;7366588;19;20111;-71
2023/09/10 12:34:44;;;;;;;17.80;14.57;;;37.70;56.40;;;;;;7367800;19;20025;-73
2023/09/10 12:37:33;;;;;;;19.17;9.38;;;37.50;56.00;;;;;;7367194;19;20587;-72
2023/09/10 12:40:01;;;;;;;16.55;8.27;;;37.30;55.70;;;;;;7369648;19;20531;-72
2023/09/10 12:42:28;;;;;;;17.60;8.85;;;37.30;55.90;;;;;;7366897;19;20018;-73
2023/09/10 12:44:54;;;;;;;16.23;9.57;;;37.30;56.80;;;;;;7369781;19;20021;-73
2023/09/10 12:47:21;;;;;;;19.00;8.60;;;37.20;56.30;;;;;;7365984;19;20050;-75